Time;durP1;ratioP1;P1;durP2;ratioP2;P2;SDS_P1;SDS_P2;PMS_P1;PMS_P2;Temp;Humidity;BMP_temperature;BMP_pressure;BME280_temperature;BME280_humidity;BME280_pressure;Samples;Min_cycle;Max_cycle;Signal;HPM_P1;HPM_P2
2022/10/23 00:00:48;;;;;;;;;;;23.20;45.50;;;;;;474812;251;1280;-53
2022/10/23 00:02:49;;;;;;;;;;;23.10;45.50;;;;;;474558;251;1246;-54
2022/10/23 00:04:51;;;;;;;;;;;23.20;45.50;;;;;;474586;251;1229;-53
2022/10/23 00:06:52;;;;;;;;;;;23.20;45.50;;;;;;474766;251;1279;-53
2022/10/23 00:08:53;;;;;;;;;;;23.20;45.50;;;;;;474684;251;1534;-54
2022/10/23 00:10:55;;;;;;;;;;;23.20;45.50;;;;;;474834;251;1392;-53
2022/10/23 00:12:56;;;;;;;;;;;23.20;45.60;;;;;;474563;251;1282;-53
2022/10/23 00:14:57;;;;;;;;;;;23.20;45.60;;;;;;474578;251;2169;-53
2022/10/23 00:16:59;;;;;;;;;;;23.20;45.60;;;;;;475013;251;1215;-54
2022/10/23 00:19:00;;;;;;;;;;;23.20;45.60;;;;;;474582;251;1384;-53
2022/10/23 00:21:02;;;;;;;;;;;23.20;45.60;;;;;;475036;251;1248;-53
2022/10/23 00:23:03;;;;;;;;;;;23.20;45.60;;;;;;474585;251;1246;-53
2022/10/23 00:25:04;;;;;;;;;;;23.20;45.60;;;;;;474623;251;1319;-54
2022/10/23 00:27:06;;;;;;;;;;;23.20;45.60;;;;;;474622;251;1234;-53
2022/10/23 00:29:07;;;;;;;;;;;23.20;45.60;;;;;;474991;251;1090;-53
2022/10/23 00:31:08;;;;;;;;;;;23.20;45.60;;;;;;474591;251;1240;-53
2022/10/23 00:33:10;;;;;;;;;;;23.20;45.60;;;;;;474754;251;1502;-53
2022/10/23 00:35:11;;;;;;;;;;;23.20;45.60;;;;;;474710;251;2169;-53
2022/10/23 00:37:12;;;;;;;;;;;23.20;45.70;;;;;;474724;251;1286;-54
2022/10/23 00:39:14;;;;;;;;;;;23.20;45.70;;;;;;474576;251;1398;-53
2022/10/23 00:41:15;;;;;;;;;;;23.20;45.60;;;;;;474577;251;1190;-53
2022/10/23 00:43:16;;;;;;;;;;;23.20;45.70;;;;;;474860;251;1203;-54
2022/10/23 00:45:18;;;;;;;;;;;23.20;45.70;;;;;;474837;251;1385;-52
2022/10/23 00:47:19;;;;;;;;;;;23.20;45.70;;;;;;474568;251;1188;-54
2022/10/23 00:49:21;;;;;;;;;;;23.20;45.70;;;;;;474567;251;1410;-53
2022/10/23 00:51:22;;;;;;;;;;;23.20;45.80;;;;;;474519;251;2471;-53
2022/10/23 00:53:23;;;;;;;;;;;23.20;45.80;;;;;;474583;251;1230;-53
2022/10/23 00:55:25;;;;;;;;;;;23.20;45.70;;;;;;474949;251;2164;-53
2022/10/23 00:57:26;;;;;;;;;;;23.20;45.80;;;;;;475022;251;1229;-54
2022/10/23 00:59:27;;;;;;;;;;;23.20;45.90;;;;;;474984;251;1214;-54
2022/10/23 01:01:29;;;;;;;;;;;23.20;45.90;;;;;;474618;251;1247;-53
2022/10/23 01:03:30;;;;;;;;;;;23.20;45.80;;;;;;474574;251;1255;-53
2022/10/23 01:05:31;;;;;;;;;;;23.20;45.80;;;;;;474728;251;1193;-54
2022/10/23 01:07:33;;;;;;;;;;;23.20;45.80;;;;;;474758;251;1402;-53
2022/10/23 01:09:34;;;;;;;;;;;23.20;45.90;;;;;;474744;251;1187;-53
2022/10/23 01:11:35;;;;;;;;;;;23.20;45.90;;;;;;474536;251;1297;-54
2022/10/23 01:13:37;;;;;;;;;;;23.20;45.90;;;;;;474942;251;1304;-53
2022/10/23 01:15:38;;;;;;;;;;;23.10;45.90;;;;;;474572;251;2208;-53
2022/10/23 01:17:39;;;;;;;;;;;23.20;45.90;;;;;;474971;251;1469;-54
2022/10/23 01:19:41;;;;;;;;;;;23.20;45.90;;;;;;474577;251;1206;-54
2022/10/23 01:21:42;;;;;;;;;;;23.20;46.00;;;;;;474448;251;2354;-53
2022/10/23 01:23:43;;;;;;;;;;;23.10;46.00;;;;;;474582;251;1262;-53
2022/10/23 01:25:45;;;;;;;;;;;23.10;46.00;;;;;;474953;251;1599;-53
2022/10/23 01:27:46;;;;;;;;;;;23.10;46.00;;;;;;474621;251;1246;-53
2022/10/23 01:29:47;;;;;;;;;;;23.10;46.00;;;;;;474980;251;1290;-53
2022/10/23 01:31:48;;;;;;;;;;;23.10;46.00;;;;;;474522;251;1260;-54
2022/10/23 01:33:50;;;;;;;;;;;23.10;46.00;;;;;;474685;251;1271;-54
2022/10/23 01:35:51;;;;;;;;;;;23.10;46.00;;;;;;474535;251;2205;-53
2022/10/23 01:37:52;;;;;;;;;;;23.10;46.00;;;;;;474733;251;1202;-53
2022/10/23 01:39:54;;;;;;;;;;;23.10;46.10;;;;;;474583;251;1207;-54
2022/10/23 01:41:55;;;;;;;;;;;23.10;46.10;;;;;;474524;251;1197;-53
2022/10/23 01:43:57;;;;;;;;;;;23.10;46.10;;;;;;474577;251;1564;-53
2022/10/23 01:45:58;;;;;;;;;;;23.10;46.10;;;;;;474784;251;1324;-53
2022/10/23 01:47:59;;;;;;;;;;;23.10;46.10;;;;;;474833;251;1261;-53
2022/10/23 01:50:00;;;;;;;;;;;23.10;46.10;;;;;;474679;251;1251;-53
2022/10/23 01:52:02;;;;;;;;;;;23.10;46.20;;;;;;474633;251;1415;-53
2022/10/23 01:54:03;;;;;;;;;;;23.10;46.20;;;;;;474624;251;1257;-53
2022/10/23 01:56:04;;;;;;;;;;;23.10;46.20;;;;;;474685;251;2136;-54
2022/10/23 01:58:07;;;;;;;;;;;23.00;46.30;;;;;;474578;251;1224;-53
2022/10/23 02:00:08;;;;;;;;;;;23.00;46.30;;;;;;474817;251;2244;-53
2022/10/23 02:02:09;;;;;;;;;;;23.00;46.30;;;;;;474607;251;1214;-54
2022/10/23 02:04:10;;;;;;;;;;;23.00;46.30;;;;;;475022;251;1254;-54
2022/10/23 02:06:12;;;;;;;;;;;23.00;46.40;;;;;;474593;251;1187;-53
2022/10/23 02:08:13;;;;;;;;;;;23.00;46.40;;;;;;474581;251;1219;-53
2022/10/23 02:10:15;;;;;;;;;;;23.00;46.40;;;;;;474622;251;1332;-53
2022/10/23 02:12:16;;;;;;;;;;;23.00;46.40;;;;;;474666;251;1155;-53
2022/10/23 02:14:17;;;;;;;;;;;23.00;46.40;;;;;;474736;251;1272;-53
2022/10/23 02:16:19;;;;;;;;;;;23.00;46.50;;;;;;474625;251;2138;-54
2022/10/23 02:18:20;;;;;;;;;;;23.00;46.40;;;;;;474901;251;1179;-53
2022/10/23 02:20:21;;;;;;;;;;;23.00;46.50;;;;;;474716;251;1259;-53
2022/10/23 02:22:23;;;;;;;;;;;23.00;46.50;;;;;;474564;251;1278;-53
2022/10/23 02:24:24;;;;;;;;;;;23.00;46.50;;;;;;474630;251;1538;-54
2022/10/23 02:26:25;;;;;;;;;;;23.00;46.50;;;;;;475042;251;1328;-53
2022/10/23 02:28:27;;;;;;;;;;;22.90;46.50;;;;;;474551;251;1324;-53
2022/10/23 02:30:28;;;;;;;;;;;22.90;46.50;;;;;;474596;251;1202;-54
2022/10/23 02:32:29;;;;;;;;;;;23.00;46.50;;;;;;474890;251;1279;-54
2022/10/23 02:34:31;;;;;;;;;;;23.00;46.50;;;;;;474704;251;1174;-54
2022/10/23 02:36:32;;;;;;;;;;;23.00;46.40;;;;;;474706;251;2133;-54
2022/10/23 02:38:33;;;;;;;;;;;23.10;46.30;;;;;;474814;251;1337;-54
2022/10/23 02:40:35;;;;;;;;;;;23.10;46.20;;;;;;474780;251;1267;-53
2022/10/23 02:42:36;;;;;;;;;;;23.10;46.20;;;;;;474566;251;1198;-53
2022/10/23 02:44:37;;;;;;;;;;;23.20;46.10;;;;;;474569;251;1497;-53
2022/10/23 02:46:39;;;;;;;;;;;23.20;46.00;;;;;;474570;251;1705;-54
2022/10/23 02:48:40;;;;;;;;;;;23.20;46.00;;;;;;474902;251;1170;-54
2022/10/23 02:50:41;;;;;;;;;;;23.30;45.90;;;;;;474576;251;1697;-53
2022/10/23 02:52:43;;;;;;;;;;;23.30;45.80;;;;;;474653;251;1541;-54
2022/10/23 02:54:44;;;;;;;;;;;23.30;45.70;;;;;;474544;251;1680;-53
2022/10/23 02:56:45;;;;;;;;;;;23.40;45.60;;;;;;474779;251;2188;-54
2022/10/23 02:58:47;;;;;;;;;;;23.40;45.60;;;;;;474965;251;1772;-53
2022/10/23 03:00:48;;;;;;;;;;;23.40;45.60;;;;;;474717;251;1200;-53
2022/10/23 03:02:49;;;;;;;;;;;23.50;45.50;;;;;;474642;251;1301;-54
2022/10/23 03:04:51;;;;;;;;;;;23.50;45.40;;;;;;474541;251;1275;-53
2022/10/23 03:06:52;;;;;;;;;;;23.50;45.30;;;;;;474547;251;1341;-53
2022/10/23 03:08:55;;;;;;;;;;;23.50;45.30;;;;;;474546;251;1237;-54
2022/10/23 03:10:54;;;;;;;;;;;23.60;45.30;;;;;;474354;251;2151;-53
2022/10/23 03:12:56;;;;;;;;;;;23.60;45.20;;;;;;474569;251;1236;-53
2022/10/23 03:14:57;;;;;;;;;;;23.60;45.20;;;;;;474719;251;2165;-53
2022/10/23 03:16:59;;;;;;;;;;;23.60;45.20;;;;;;474901;251;1553;-53
2022/10/23 03:19:00;;;;;;;;;;;23.60;45.30;;;;;;474758;251;1256;-54
2022/10/23 03:21:01;;;;;;;;;;;23.60;45.20;;;;;;474988;251;1549;-54
2022/10/23 03:23:02;;;;;;;;;;;23.70;45.20;;;;;;474554;251;1321;-54
2022/10/23 03:25:04;;;;;;;;;;;23.70;45.10;;;;;;474613;251;1242;-54
2022/10/23 03:27:05;;;;;;;;;;;23.70;45.10;;;;;;474595;251;1245;-53
2022/10/23 03:29:06;;;;;;;;;;;23.70;45.00;;;;;;474698;251;1297;-53
2022/10/23 03:31:08;;;;;;;;;;;23.70;45.10;;;;;;474793;251;1321;-53
2022/10/23 03:33:09;;;;;;;;;;;23.70;45.00;;;;;;474707;251;1183;-53
2022/10/23 03:35:10;;;;;;;;;;;23.70;45.00;;;;;;474755;251;2193;-53
2022/10/23 03:37:12;;;;;;;;;;;23.80;45.00;;;;;;474522;251;1238;-53
2022/10/23 03:39:13;;;;;;;;;;;23.80;44.90;;;;;;474824;251;1426;-53
2022/10/23 03:41:14;;;;;;;;;;;23.80;44.90;;;;;;474655;251;1358;-52
2022/10/23 03:43:16;;;;;;;;;;;23.80;44.80;;;;;;474583;251;1232;-53
2022/10/23 03:45:17;;;;;;;;;;;23.80;44.80;;;;;;474653;251;1229;-53
2022/10/23 03:47:19;;;;;;;;;;;23.80;44.90;;;;;;474569;251;1231;-53
2022/10/23 03:49:20;;;;;;;;;;;23.80;44.80;;;;;;474821;251;2292;-53
2022/10/23 03:51:21;;;;;;;;;;;23.90;44.90;;;;;;474555;251;1393;-53
2022/10/23 03:53:23;;;;;;;;;;;23.90;44.80;;;;;;474594;251;1350;-54
2022/10/23 03:55:25;;;;;;;;;;;23.90;44.80;;;;;;474631;251;2209;-53
2022/10/23 03:57:26;;;;;;;;;;;23.90;44.80;;;;;;474547;251;2405;-54
2022/10/23 03:59:27;;;;;;;;;;;23.90;44.80;;;;;;474759;251;1247;-53
2022/10/23 04:01:28;;;;;;;;;;;23.90;44.80;;;;;;474953;251;1247;-54
2022/10/23 04:03:29;;;;;;;;;;;23.90;44.80;;;;;;474611;251;1201;-54
2022/10/23 04:05:31;;;;;;;;;;;23.90;44.80;;;;;;474590;251;2387;-54
2022/10/23 04:07:32;;;;;;;;;;;23.90;44.80;;;;;;474526;251;1298;-53
2022/10/23 04:09:33;;;;;;;;;;;23.90;44.90;;;;;;474877;251;1226;-54
2022/10/23 04:11:35;;;;;;;;;;;23.90;45.00;;;;;;474652;251;1424;-54
2022/10/23 04:13:36;;;;;;;;;;;23.80;45.00;;;;;;474817;251;1306;-53
2022/10/23 04:15:37;;;;;;;;;;;23.80;45.10;;;;;;474593;251;2161;-54
2022/10/23 04:17:39;;;;;;;;;;;23.70;45.10;;;;;;474602;251;1188;-54
2022/10/23 04:19:40;;;;;;;;;;;23.70;45.30;;;;;;474704;251;1233;-54
2022/10/23 04:21:42;;;;;;;;;;;23.60;45.40;;;;;;474837;251;1247;-54
2022/10/23 04:23:43;;;;;;;;;;;23.60;45.40;;;;;;474734;251;1211;-54
2022/10/23 04:25:44;;;;;;;;;;;23.60;45.50;;;;;;474646;251;1218;-53
2022/10/23 04:27:46;;;;;;;;;;;23.60;45.60;;;;;;474978;251;1251;-53
2022/10/23 04:29:48;;;;;;;;;;;23.50;45.60;;;;;;474645;251;1250;-54
2022/10/23 04:31:48;;;;;;;;;;;23.50;45.60;;;;;;474519;251;1904;-53
2022/10/23 04:33:50;;;;;;;;;;;23.50;45.70;;;;;;474669;251;1313;-53
2022/10/23 04:35:51;;;;;;;;;;;23.40;45.70;;;;;;474753;251;2173;-54
2022/10/23 04:37:52;;;;;;;;;;;23.50;45.80;;;;;;474483;251;1354;-53
2022/10/23 04:39:54;;;;;;;;;;;23.40;45.90;;;;;;474618;251;1276;-54
2022/10/23 04:41:55;;;;;;;;;;;23.40;45.90;;;;;;474548;251;1207;-53
2022/10/23 04:43:56;;;;;;;;;;;23.40;45.90;;;;;;474855;251;1220;-53
2022/10/23 04:45:58;;;;;;;;;;;23.40;45.90;;;;;;474772;251;1356;-54
2022/10/23 04:47:59;;;;;;;;;;;23.40;46.00;;;;;;474592;251;1451;-53
2022/10/23 04:50:00;;;;;;;;;;;23.40;46.00;;;;;;474576;251;1239;-53
2022/10/23 04:52:02;;;;;;;;;;;23.30;46.00;;;;;;474836;251;1230;-54
2022/10/23 04:54:03;;;;;;;;;;;23.40;46.10;;;;;;474695;251;1526;-54
2022/10/23 04:56:04;;;;;;;;;;;23.30;46.00;;;;;;474623;251;2198;-53
2022/10/23 04:58:06;;;;;;;;;;;23.30;46.00;;;;;;474963;251;1291;-53
2022/10/23 05:00:07;;;;;;;;;;;23.30;46.00;;;;;;474570;251;1243;-53
2022/10/23 05:02:08;;;;;;;;;;;23.30;46.00;;;;;;474884;251;1358;-53
2022/10/23 05:04:10;;;;;;;;;;;23.40;46.10;;;;;;474927;251;1210;-53
2022/10/23 05:06:11;;;;;;;;;;;23.40;46.00;;;;;;474575;251;1246;-53
2022/10/23 05:08:12;;;;;;;;;;;23.40;46.00;;;;;;475009;251;1284;-53
2022/10/23 05:10:13;;;;;;;;;;;23.40;46.00;;;;;;474689;251;1223;-53
2022/10/23 05:12:15;;;;;;;;;;;23.40;46.00;;;;;;474785;251;1300;-53
2022/10/23 05:14:16;;;;;;;;;;;23.30;46.00;;;;;;474997;251;1255;-53
2022/10/23 05:16:17;;;;;;;;;;;23.30;46.10;;;;;;474778;251;2205;-53
2022/10/23 05:18:19;;;;;;;;;;;23.40;46.10;;;;;;474576;251;1191;-54
2022/10/23 05:20:20;;;;;;;;;;;23.40;46.10;;;;;;474742;251;1192;-53
2022/10/23 05:22:21;;;;;;;;;;;23.30;46.00;;;;;;474679;251;1255;-53
2022/10/23 05:24:23;;;;;;;;;;;23.30;46.10;;;;;;474576;251;1261;-53
2022/10/23 05:26:24;;;;;;;;;;;23.30;46.10;;;;;;474566;251;1224;-54
2022/10/23 05:28:26;;;;;;;;;;;23.30;46.20;;;;;;475028;251;1280;-53
2022/10/23 05:30:27;;;;;;;;;;;23.30;46.20;;;;;;475013;251;1320;-53
2022/10/23 05:32:28;;;;;;;;;;;23.30;46.10;;;;;;474859;251;1304;-54
2022/10/23 05:34:30;;;;;;;;;;;23.30;46.10;;;;;;474608;251;1207;-53
2022/10/23 05:36:31;;;;;;;;;;;23.30;46.10;;;;;;474711;251;2181;-54
2022/10/23 05:38:32;;;;;;;;;;;23.30;46.10;;;;;;475040;251;1231;-53
2022/10/23 05:40:34;;;;;;;;;;;23.30;46.10;;;;;;474881;251;1199;-53
2022/10/23 05:42:35;;;;;;;;;;;23.30;46.10;;;;;;474614;251;1236;-54
2022/10/23 05:44:36;;;;;;;;;;;23.40;46.10;;;;;;474628;251;1228;-53
2022/10/23 05:46:38;;;;;;;;;;;23.40;45.90;;;;;;474931;251;1554;-53
2022/10/23 05:48:39;;;;;;;;;;;23.50;45.90;;;;;;474714;251;1306;-53
2022/10/23 05:50:40;;;;;;;;;;;23.50;45.80;;;;;;474574;251;1213;-53
2022/10/23 05:52:42;;;;;;;;;;;23.50;45.80;;;;;;474625;251;1258;-53
2022/10/23 05:54:43;;;;;;;;;;;23.50;45.90;;;;;;474569;251;1277;-53
2022/10/23 05:56:44;;;;;;;;;;;23.40;45.80;;;;;;474536;251;2218;-54
2022/10/23 05:58:46;;;;;;;;;;;23.40;45.80;;;;;;474612;251;1234;-54
2022/10/23 06:00:47;;;;;;;;;;;23.40;45.90;;;;;;474977;251;1275;-53
2022/10/23 06:02:48;;;;;;;;;;;23.50;45.90;;;;;;474860;251;1222;-53
2022/10/23 06:04:50;;;;;;;;;;;23.40;45.90;;;;;;474596;251;1197;-53
2022/10/23 06:06:51;;;;;;;;;;;23.40;45.90;;;;;;474581;251;1330;-54
2022/10/23 06:08:52;;;;;;;;;;;23.40;46.00;;;;;;474634;251;1249;-53
2022/10/23 06:10:54;;;;;;;;;;;23.40;46.00;;;;;;474477;251;1377;-54
2022/10/23 06:12:55;;;;;;;;;;;23.40;46.00;;;;;;474595;251;1353;-53
2022/10/23 06:14:56;;;;;;;;;;;23.40;46.00;;;;;;474629;251;1196;-53
2022/10/23 06:16:57;;;;;;;;;;;23.40;46.10;;;;;;474382;251;2158;-54
2022/10/23 06:18:59;;;;;;;;;;;23.40;46.10;;;;;;474608;251;1217;-53
2022/10/23 06:21:00;;;;;;;;;;;23.40;46.10;;;;;;474498;251;1576;-53
2022/10/23 06:23:02;;;;;;;;;;;23.30;46.10;;;;;;474529;251;1292;-54
2022/10/23 06:25:03;;;;;;;;;;;23.40;46.20;;;;;;474612;251;1282;-54
2022/10/23 06:27:04;;;;;;;;;;;23.40;46.10;;;;;;474450;251;1506;-53
2022/10/23 06:29:06;;;;;;;;;;;23.30;46.10;;;;;;474705;251;1414;-53
2022/10/23 06:31:07;;;;;;;;;;;23.30;46.20;;;;;;474555;251;1358;-54
2022/10/23 06:33:09;;;;;;;;;;;23.30;46.20;;;;;;474718;251;1303;-54
2022/10/23 06:35:10;;;;;;;;;;;23.30;46.20;;;;;;474756;251;1221;-53
2022/10/23 06:37:11;;;;;;;;;;;23.30;46.20;;;;;;474506;251;2185;-53
2022/10/23 06:39:13;;;;;;;;;;;23.30;46.30;;;;;;474896;251;1196;-54
2022/10/23 06:41:14;;;;;;;;;;;23.30;46.30;;;;;;474679;251;1310;-53
2022/10/23 06:43:15;;;;;;;;;;;23.30;46.30;;;;;;474974;251;1545;-53
2022/10/23 06:45:17;;;;;;;;;;;23.30;46.30;;;;;;474738;251;1221;-54
2022/10/23 06:47:18;;;;;;;;;;;23.30;46.30;;;;;;474637;251;1270;-53
2022/10/23 06:49:19;;;;;;;;;;;23.20;46.40;;;;;;474994;251;1257;-53
2022/10/23 06:51:21;;;;;;;;;;;23.20;46.40;;;;;;474747;251;1389;-53
2022/10/23 06:53:23;;;;;;;;;;;23.20;46.40;;;;;;474988;251;1268;-53
2022/10/23 06:55:24;;;;;;;;;;;23.20;46.40;;;;;;474572;251;1285;-53
2022/10/23 06:57:25;;;;;;;;;;;23.20;46.40;;;;;;474562;251;2173;-53
2022/10/23 06:59:27;;;;;;;;;;;23.20;46.40;;;;;;474575;251;1255;-53
2022/10/23 07:01:28;;;;;;;;;;;23.20;46.40;;;;;;474671;251;1318;-53
2022/10/23 07:03:29;;;;;;;;;;;23.20;46.40;;;;;;474545;251;1259;-53
2022/10/23 07:05:31;;;;;;;;;;;23.20;46.40;;;;;;474702;251;1512;-53
2022/10/23 07:07:32;;;;;;;;;;;23.20;46.50;;;;;;474765;251;1220;-53
2022/10/23 07:09:33;;;;;;;;;;;23.20;46.50;;;;;;474650;251;1295;-53
2022/10/23 07:11:35;;;;;;;;;;;23.20;46.50;;;;;;474864;251;1691;-53
2022/10/23 07:13:37;;;;;;;;;;;23.20;46.60;;;;;;474609;251;1416;-53
2022/10/23 07:15:37;;;;;;;;;;;23.20;46.60;;;;;;474970;251;1703;-54
2022/10/23 07:17:39;;;;;;;;;;;23.20;46.60;;;;;;474585;251;2173;-53
2022/10/23 07:19:40;;;;;;;;;;;23.20;46.60;;;;;;474781;251;1275;-53
2022/10/23 07:21:41;;;;;;;;;;;23.20;46.60;;;;;;474550;251;1363;-53
2022/10/23 07:23:43;;;;;;;;;;;23.20;46.60;;;;;;474546;251;1632;-54
2022/10/23 07:25:44;;;;;;;;;;;23.20;46.60;;;;;;474744;251;1330;-54
2022/10/23 07:27:45;;;;;;;;;;;23.10;46.60;;;;;;474553;251;1298;-53
2022/10/23 07:29:47;;;;;;;;;;;23.20;46.60;;;;;;474634;251;1245;-54
2022/10/23 07:31:48;;;;;;;;;;;23.10;46.60;;;;;;474588;251;1326;-53
2022/10/23 07:33:49;;;;;;;;;;;23.10;46.60;;;;;;474959;251;1235;-53
2022/10/23 07:35:51;;;;;;;;;;;23.10;46.60;;;;;;474870;251;1531;-53
2022/10/23 07:37:52;;;;;;;;;;;23.10;46.70;;;;;;474648;251;2201;-53
2022/10/23 07:39:53;;;;;;;;;;;23.10;46.70;;;;;;474705;251;1281;-54
2022/10/23 07:41:55;;;;;;;;;;;23.10;46.70;;;;;;474881;251;1271;-53
2022/10/23 07:43:56;;;;;;;;;;;23.10;46.70;;;;;;475037;251;1251;-53
2022/10/23 07:45:57;;;;;;;;;;;23.10;46.70;;;;;;474984;251;1182;-53
2022/10/23 07:47:59;;;;;;;;;;;23.10;46.70;;;;;;474757;251;1138;-53
2022/10/23 07:50:00;;;;;;;;;;;23.10;46.60;;;;;;474577;251;1267;-53
2022/10/23 07:52:01;;;;;;;;;;;23.10;46.70;;;;;;474762;251;1285;-53
2022/10/23 07:54:02;;;;;;;;;;;23.10;46.70;;;;;;474592;251;1261;-53
2022/10/23 07:56:04;;;;;;;;;;;23.10;46.70;;;;;;474609;251;1198;-53
2022/10/23 07:58:05;;;;;;;;;;;23.10;46.70;;;;;;474582;251;2185;-53
2022/10/23 08:00:07;;;;;;;;;;;23.10;46.70;;;;;;475016;251;1357;-53
2022/10/23 08:02:08;;;;;;;;;;;23.10;46.80;;;;;;474687;251;1214;-54
2022/10/23 08:04:09;;;;;;;;;;;23.10;46.70;;;;;;474887;251;1237;-53
2022/10/23 08:06:11;;;;;;;;;;;23.10;46.70;;;;;;474829;251;1267;-53
2022/10/23 08:08:12;;;;;;;;;;;23.10;46.70;;;;;;474883;251;1495;-53
2022/10/23 08:10:13;;;;;;;;;;;23.10;46.80;;;;;;474594;251;1216;-53
2022/10/23 08:12:15;;;;;;;;;;;23.10;46.70;;;;;;474705;251;1213;-53
2022/10/23 08:14:16;;;;;;;;;;;23.10;46.80;;;;;;474856;251;1222;-54
2022/10/23 08:16:17;;;;;;;;;;;23.10;46.80;;;;;;474835;251;1227;-54
2022/10/23 08:18:19;;;;;;;;;;;23.10;46.80;;;;;;474776;251;2204;-54
2022/10/23 08:20:21;;;;;;;;;;;23.10;46.80;;;;;;474776;251;1347;-54
2022/10/23 08:22:21;;;;;;;;;;;23.00;46.80;;;;;;474465;251;1843;-53
2022/10/23 08:24:23;;;;;;;;;;;23.10;46.90;;;;;;474557;251;1273;-53
2022/10/23 08:26:24;;;;;;;;;;;23.10;46.80;;;;;;474689;251;1226;-53
2022/10/23 08:28:25;;;;;;;;;;;23.10;46.90;;;;;;474646;251;1536;-53
2022/10/23 08:30:27;;;;;;;;;;;23.10;46.80;;;;;;474832;251;1384;-54
2022/10/23 08:32:28;;;;;;;;;;;23.10;46.80;;;;;;474544;251;1311;-53
2022/10/23 08:34:30;;;;;;;;;;;23.10;46.80;;;;;;474695;251;1396;-53
2022/10/23 08:36:32;;;;;;;;;;;23.10;46.80;;;;;;474600;251;1201;-53
2022/10/23 08:38:34;;;;;;;;;;;23.10;46.70;;;;;;474501;251;2139;-53
2022/10/23 08:40:34;;;;;;;;;;;23.10;46.80;;;;;;474763;251;1686;-54
2022/10/23 08:42:35;;;;;;;;;;;23.10;46.80;;;;;;474888;251;1357;-53
2022/10/23 08:44:37;;;;;;;;;;;23.10;46.80;;;;;;474819;251;1189;-52
2022/10/23 08:46:38;;;;;;;;;;;23.00;46.80;;;;;;474785;251;1279;-53
2022/10/23 08:48:39;;;;;;;;;;;23.10;46.90;;;;;;474553;251;1201;-54
2022/10/23 08:50:41;;;;;;;;;;;23.10;46.80;;;;;;474583;251;1308;-53
2022/10/23 08:52:42;;;;;;;;;;;23.10;46.80;;;;;;474575;251;1267;-54
2022/10/23 08:54:43;;;;;;;;;;;23.10;46.80;;;;;;474603;251;1568;-53
2022/10/23 08:56:45;;;;;;;;;;;23.10;46.80;;;;;;474945;251;1203;-54
2022/10/23 08:58:46;;;;;;;;;;;23.10;46.80;;;;;;474559;251;2181;-53
2022/10/23 09:00:47;;;;;;;;;;;23.10;46.80;;;;;;474528;251;1295;-53
2022/10/23 09:02:49;;;;;;;;;;;23.10;46.80;;;;;;474899;251;1291;-53
2022/10/23 09:04:50;;;;;;;;;;;23.10;46.90;;;;;;474976;251;1296;-53
2022/10/23 09:06:51;;;;;;;;;;;23.00;46.80;;;;;;474523;251;1222;-54
2022/10/23 09:08:53;;;;;;;;;;;23.10;46.80;;;;;;474647;251;1245;-53
2022/10/23 09:10:54;;;;;;;;;;;23.10;46.80;;;;;;474573;251;1302;-53
2022/10/23 09:12:55;;;;;;;;;;;23.10;46.80;;;;;;474843;251;1194;-53
2022/10/23 09:14:56;;;;;;;;;;;23.10;46.80;;;;;;474887;251;1618;-53
2022/10/23 09:16:58;;;;;;;;;;;23.00;46.80;;;;;;474734;251;1221;-54
2022/10/23 09:18:59;;;;;;;;;;;23.10;46.90;;;;;;474553;251;2213;-53
2022/10/23 09:21:00;;;;;;;;;;;23.10;46.80;;;;;;474998;251;1316;-53
2022/10/23 09:23:02;;;;;;;;;;;23.10;46.80;;;;;;474497;251;1274;-53
2022/10/23 09:25:03;;;;;;;;;;;23.00;46.80;;;;;;474564;251;1378;-53
2022/10/23 09:27:04;;;;;;;;;;;23.10;46.90;;;;;;474720;251;1208;-54
2022/10/23 09:29:06;;;;;;;;;;;23.10;46.80;;;;;;474631;251;1294;-53
2022/10/23 09:31:07;;;;;;;;;;;23.10;46.80;;;;;;474812;251;1190;-54
2022/10/23 09:33:08;;;;;;;;;;;23.00;46.90;;;;;;474847;251;1225;-53
2022/10/23 09:35:10;;;;;;;;;;;23.00;46.90;;;;;;474544;251;1239;-53
2022/10/23 09:37:11;;;;;;;;;;;23.10;46.90;;;;;;474647;251;2153;-53
2022/10/23 09:39:12;;;;;;;;;;;23.00;46.90;;;;;;474530;251;1285;-54
2022/10/23 09:41:14;;;;;;;;;;;23.00;46.90;;;;;;475001;251;1242;-53
2022/10/23 09:43:15;;;;;;;;;;;23.00;46.90;;;;;;474557;251;1308;-53
2022/10/23 09:45:16;;;;;;;;;;;23.00;46.90;;;;;;474959;251;1258;-53
2022/10/23 09:47:19;;;;;;;;;;;23.00;46.90;;;;;;474846;251;1349;-53
2022/10/23 09:49:19;;;;;;;;;;;23.00;46.80;;;;;;474570;251;2160;-54
2022/10/23 09:51:20;;;;;;;;;;;23.00;46.90;;;;;;474829;251;1186;-53
2022/10/23 09:53:22;;;;;;;;;;;23.00;46.80;;;;;;474544;251;1329;-53
2022/10/23 09:55:23;;;;;;;;;;;23.10;46.90;;;;;;474587;251;1192;-53
2022/10/23 09:57:25;;;;;;;;;;;23.00;46.80;;;;;;474561;251;2177;-53
2022/10/23 09:59:26;;;;;;;;;;;23.00;46.90;;;;;;474663;251;1209;-53
2022/10/23 10:01:27;;;;;;;;;;;23.00;46.90;;;;;;474734;251;1308;-53
2022/10/23 10:03:29;;;;;;;;;;;23.00;46.90;;;;;;474622;251;1363;-53
2022/10/23 10:05:30;;;;;;;;;;;23.00;46.90;;;;;;474604;251;1238;-53
2022/10/23 10:07:31;;;;;;;;;;;23.00;47.00;;;;;;474547;251;1160;-54
2022/10/23 10:09:33;;;;;;;;;;;23.00;46.90;;;;;;474716;251;1557;-53
2022/10/23 10:11:34;;;;;;;;;;;23.00;46.90;;;;;;474551;251;1307;-53
2022/10/23 10:13:36;;;;;;;;;;;23.00;46.80;;;;;;474548;251;1265;-53
2022/10/23 10:15:37;;;;;;;;;;;23.10;46.90;;;;;;474582;251;1269;-53
2022/10/23 10:17:38;;;;;;;;;;;23.00;46.90;;;;;;474619;251;2193;-53
2022/10/23 10:19:40;;;;;;;;;;;23.00;46.90;;;;;;474651;251;1218;-53
2022/10/23 10:21:41;;;;;;;;;;;23.10;46.90;;;;;;474640;251;1519;-53
2022/10/23 10:23:42;;;;;;;;;;;23.00;46.90;;;;;;474513;251;1222;-53
2022/10/23 10:25:44;;;;;;;;;;;23.10;47.00;;;;;;474572;251;1304;-54
2022/10/23 10:27:45;;;;;;;;;;;23.00;46.90;;;;;;474617;251;1234;-53
2022/10/23 10:29:47;;;;;;;;;;;23.00;46.90;;;;;;474508;251;1321;-53
2022/10/23 10:31:48;;;;;;;;;;;23.00;46.90;;;;;;475004;251;1280;-54
2022/10/23 10:33:49;;;;;;;;;;;23.00;46.90;;;;;;474552;251;1335;-53
2022/10/23 10:35:51;;;;;;;;;;;23.00;46.90;;;;;;474972;251;1211;-54
2022/10/23 10:37:52;;;;;;;;;;;23.00;46.90;;;;;;474744;251;2212;-54
2022/10/23 10:39:53;;;;;;;;;;;23.00;46.90;;;;;;474537;251;1566;-54
2022/10/23 10:41:55;;;;;;;;;;;23.00;46.90;;;;;;475008;251;1273;-53
2022/10/23 10:43:56;;;;;;;;;;;23.00;46.90;;;;;;474907;251;1220;-53
2022/10/23 10:45:57;;;;;;;;;;;23.00;46.90;;;;;;474573;251;1200;-54
2022/10/23 10:47:59;;;;;;;;;;;23.10;46.90;;;;;;474812;251;1222;-54
2022/10/23 10:50:00;;;;;;;;;;;23.00;46.90;;;;;;474593;251;1216;-53
2022/10/23 10:52:01;;;;;;;;;;;23.10;46.90;;;;;;474760;251;1260;-53
2022/10/23 10:54:03;;;;;;;;;;;23.10;46.90;;;;;;474567;251;1503;-53
2022/10/23 10:56:04;;;;;;;;;;;23.00;46.90;;;;;;474757;251;1256;-53
2022/10/23 10:58:05;;;;;;;;;;;23.00;46.90;;;;;;474583;251;2185;-53
2022/10/23 11:00:07;;;;;;;;;;;23.00;46.90;;;;;;474547;251;1506;-53
2022/10/23 11:02:08;;;;;;;;;;;23.00;47.00;;;;;;474733;251;1227;-53
2022/10/23 11:04:09;;;;;;;;;;;23.00;47.00;;;;;;474576;251;1219;-53
2022/10/23 11:06:11;;;;;;;;;;;23.00;46.90;;;;;;474947;251;1346;-54
2022/10/23 11:08:12;;;;;;;;;;;23.00;47.00;;;;;;474636;251;1418;-53
2022/10/23 11:10:14;;;;;;;;;;;23.00;47.00;;;;;;474955;251;1206;-54
2022/10/23 11:12:15;;;;;;;;;;;23.00;47.00;;;;;;474553;251;1282;-54
2022/10/23 11:14:16;;;;;;;;;;;23.00;47.10;;;;;;474901;251;1182;-54
2022/10/23 11:16:18;;;;;;;;;;;23.00;47.10;;;;;;474660;251;1212;-53
2022/10/23 11:18:19;;;;;;;;;;;23.00;47.10;;;;;;475011;251;2153;-53
2022/10/23 11:20:20;;;;;;;;;;;23.00;47.10;;;;;;474823;251;1254;-54
2022/10/23 11:22:22;;;;;;;;;;;23.00;47.10;;;;;;474549;251;1513;-53
2022/10/23 11:24:23;;;;;;;;;;;23.00;47.10;;;;;;474577;251;1309;-54
2022/10/23 11:26:24;;;;;;;;;;;23.00;47.00;;;;;;474558;251;1366;-53
2022/10/23 11:28:26;;;;;;;;;;;23.00;47.00;;;;;;474954;251;1272;-54
2022/10/23 11:30:27;;;;;;;;;;;23.00;47.00;;;;;;474700;251;1216;-54
2022/10/23 11:32:28;;;;;;;;;;;23.00;47.10;;;;;;474996;251;1249;-53
2022/10/23 11:34:30;;;;;;;;;;;23.00;47.10;;;;;;474867;251;1241;-53
2022/10/23 11:36:31;;;;;;;;;;;23.00;47.10;;;;;;474742;251;1530;-53
2022/10/23 11:38:32;;;;;;;;;;;23.00;47.10;;;;;;474626;251;2208;-53
2022/10/23 11:40:34;;;;;;;;;;;23.00;47.10;;;;;;474719;251;1226;-54
2022/10/23 11:42:35;;;;;;;;;;;23.00;47.10;;;;;;474650;251;1259;-54
2022/10/23 11:44:36;;;;;;;;;;;23.00;47.10;;;;;;474612;251;1276;-53
2022/10/23 11:46:38;;;;;;;;;;;23.00;47.10;;;;;;474575;251;1285;-53
2022/10/23 11:48:39;;;;;;;;;;;23.00;47.10;;;;;;474607;251;1253;-53
2022/10/23 11:50:40;;;;;;;;;;;23.00;47.10;;;;;;474814;251;1184;-54
2022/10/23 11:52:42;;;;;;;;;;;23.00;47.10;;;;;;474753;251;1263;-53
2022/10/23 11:54:43;;;;;;;;;;;23.00;47.10;;;;;;474721;251;1214;-53
2022/10/23 11:56:44;;;;;;;;;;;23.00;47.10;;;;;;474576;251;1309;-53